Main page
METAR-TAF:

METAR-TAF

Airports :

Graz, Austria

Graz Airport

latitude: 47-00N, longitude: 015-26E, elevation: 340 m

Current weather observation

The report was made 38 minutes ago, at 02:20 UTC
Wind 1 kt from variable directions
Temperature 11°C
Humidity 94%
Pressure 1023 hPa
Visibility 10 km or more

METAR: LOWG 280220Z AUTO VRB01KT 9999 NCD 11/10 Q1023

Time: 04:58 (02:58 UTC)

Forecast

The report was made 3 hours and 43 minutes ago, at 23:15 UTC
Forecast valid from 28 at 00 UTC to 28 at 24 UTC
Wind 4 kt from the East/Southeast
Visibility 10 km or more
no clouds below 1500 m and no cumulonimbus
Temporary
from 28 at 10 UTC to 28 at 18 UTC
Wind 8 kt from the South/Southeast
Visibility 10 km or more
Few clouds at a height of 6000 ft

TAF: LOWG 272315Z 2800/2824 12004KT CAVOK TX27/2815Z TN10/2803Z TEMPO 2810/2818 16008KT 9999 FEW060

Weather observations and forecasts of more than 4000 airports (METAR and TAF reports).

The available stations are represented by yellow and red dots on the map.

Hover mouse over dot to see the name of the station.

Then click to see weather observations and forecasts.

To change the map : click on the green buttons with a black cross to zoom in, on the green button with a dash to zoom out, or on the green arrows for adjacent maps.


METAR-TAF: